Fort White, FL (32038)

12:37 AM EDT en Septiembre 03, 2014 (GMT -0400)
Columbia County | Change Station
CLOSE
Current Station
Estación meteorológica personal
Location: Lake City, FL
Altura: 65 ft
Estaciones meteorológicas cercanas

Alt 65 ft 30.06 °N, 82.70 °W | Updated 7 seconds ago

Lluvia
Lluvia
73.2 ° F
Sensación térmica 73.2 ° F
N
0.9
Viento Variable Viento desde Este
Gusts 3.0 mph

Hoy
Alta -- | Baja -- ° F
--% Posibilidad de precipitaciones
Ayer
Alta -- | Baja -- ° F
Precip. -- pul
7:09 AM 7:50 PM
Cuarto creciente, 58% visible
Presión 30.04 pul
Visibilidad 9.0 Millas
Nubes Baja 4400 ft
Punto de rocío 73 ° F
Humedad 98%
Precipitaciones 0.00 pul
Espesor de la nieve No disponible.
UV 0 de una escala de 12
Polen 8.30 de una escala de 12
Calidad del aire No disponible.
Flu Activity No disponible.
METAR KGNV 030353Z AUTO 00000KT 9SM FEW044 24/23 A3004 RMK AO2 SLP170 T02390233

More Conditions Fewer Conditions

Presión 30.04 pul
Visibilidad 9.0 Millas
Nubes Baja 4400 ft
Punto de rocío 73 ° F
Humedad 98%
Precipitaciones 0.00 pul
Espesor de la nieve No disponible.
UV 0 de una escala de 12
Polen 8.30 de una escala de 12
Calidad del aire No disponible.
Flu Activity No disponible.
METAR KGNV 030353Z AUTO 00000KT 9SM FEW044 24/23 A3004 RMK AO2 SLP170 T02390233

More Conditions Fewer Conditions

10-Day Weather Forecast

Almanac

Astronomía

Sep. 03, 2014 Salida Puesta
Hora real 7:09 AM EDT 7:50 PM EDT
Crepúsculo civil 6:44 AM EDT 8:15 PM EDT
Crepúsculo náutico 6:16 AM EDT 8:43 PM EDT
Crepúsculo astronómico 5:47 AM EDT 9:12 PM EDT
Luna 3:18 PM EDT 1:15 AM EDT
Horas de luz 13h 30m
Horas de luz
12h 41m
Tomorrow will be 1m 44s shorter.
Cuarto creciente, 58% of the Moon is Illuminated
Hoy
Cuarto creciente
Sep 8
Luna llena
Sep 15
Cuarto menguante
Sep 24
Nueva
Oct 1
Cuarto creciente

Extremos de ayer

Máximos del estado Bajos del estado

Community

WunderPhotos

Upload Photos

1,749,870 ¡fotos cargadas!

Nearby

Grosos de nieve

Estación Profundido Altura
No tenemos constancia de nieve nueva.

Actividad de terremotos

Ciudad Distance Mag. Tiempo y dato
No hay informes recientes de la actividad sísmica.
Magnitud mínima muestra es 2,5.

Temperaturas de aguas costeras

Lugar Temperatura
Sin partes meteorológicos de las estaciones

Estaciones meteorológicas cercanas